sensor_id;sensor_type;location;lat;lon;timestamp;P1;durP1;ratioP1;P2;durP2;ratioP2
7013;SDS011;3547;50.774;12.918;2022-12-05T00:00:20;11.47;;;7.30;;
7013;SDS011;3547;50.774;12.918;2022-12-05T00:02:46;8.67;;;6.43;;
7013;SDS011;3547;50.774;12.918;2022-12-05T00:05:13;9.53;;;7.43;;
7013;SDS011;3547;50.774;12.918;2022-12-05T00:07:39;9.37;;;6.43;;
7013;SDS011;3547;50.774;12.918;2022-12-05T00:10:05;13.30;;;7.30;;
7013;SDS011;3547;50.774;12.918;2022-12-05T00:12:32;9.47;;;6.53;;
7013;SDS011;3547;50.774;12.918;2022-12-05T00:14:58;12.93;;;6.00;;
7013;SDS011;3547;50.774;12.918;2022-12-05T00:17:24;7.87;;;5.90;;
7013;SDS011;3547;50.774;12.918;2022-12-05T00:19:50;11.57;;;6.80;;
7013;SDS011;3547;50.774;12.918;2022-12-05T00:22:16;9.47;;;6.10;;
7013;SDS011;3547;50.774;12.918;2022-12-05T00:24:43;10.97;;;6.73;;
7013;SDS011;3547;50.774;12.918;2022-12-05T00:27:09;10.17;;;6.37;;
7013;SDS011;3547;50.774;12.918;2022-12-05T00:29:35;8.00;;;5.90;;
7013;SDS011;3547;50.774;12.918;2022-12-05T00:32:01;9.97;;;6.80;;
7013;SDS011;3547;50.774;12.918;2022-12-05T00:34:27;8.97;;;6.30;;
7013;SDS011;3547;50.774;12.918;2022-12-05T00:36:54;11.03;;;7.20;;
7013;SDS011;3547;50.774;12.918;2022-12-05T00:39:20;11.97;;;7.20;;
7013;SDS011;3547;50.774;12.918;2022-12-05T00:41:46;10.70;;;7.27;;
7013;SDS011;3547;50.774;12.918;2022-12-05T00:44:12;12.70;;;7.97;;
7013;SDS011;3547;50.774;12.918;2022-12-05T00:46:38;10.30;;;7.33;;
7013;SDS011;3547;50.774;12.918;2022-12-05T00:49:05;9.67;;;7.20;;
7013;SDS011;3547;50.774;12.918;2022-12-05T00:51:34;9.60;;;7.17;;
7013;SDS011;3547;50.774;12.918;2022-12-05T00:54:03;10.63;;;7.27;;
7013;SDS011;3547;50.774;12.918;2022-12-05T00:56:34;11.07;;;7.47;;
7013;SDS011;3547;50.774;12.918;2022-12-05T00:59:01;9.77;;;7.43;;
7013;SDS011;3547;50.774;12.918;2022-12-05T01:01:30;10.53;;;6.93;;
7013;SDS011;3547;50.774;12.918;2022-12-05T01:04:03;15.37;;;8.43;;
7013;SDS011;3547;50.774;12.918;2022-12-05T01:06:31;10.10;;;7.57;;
7013;SDS011;3547;50.774;12.918;2022-12-05T01:08:57;12.93;;;7.40;;
7013;SDS011;3547;50.774;12.918;2022-12-05T01:11:24;10.60;;;7.20;;
7013;SDS011;3547;50.774;12.918;2022-12-05T01:13:51;11.07;;;7.97;;
7013;SDS011;3547;50.774;12.918;2022-12-05T01:16:19;10.90;;;7.50;;
7013;SDS011;3547;50.774;12.918;2022-12-05T01:18:50;8.73;;;7.27;;
7013;SDS011;3547;50.774;12.918;2022-12-05T01:21:16;10.07;;;6.97;;
7013;SDS011;3547;50.774;12.918;2022-12-05T01:23:42;11.03;;;6.83;;
7013;SDS011;3547;50.774;12.918;2022-12-05T01:26:11;12.20;;;6.40;;
7013;SDS011;3547;50.774;12.918;2022-12-05T01:28:38;16.63;;;6.80;;
7013;SDS011;3547;50.774;12.918;2022-12-05T01:31:06;9.77;;;6.60;;
7013;SDS011;3547;50.774;12.918;2022-12-05T01:33:35;9.37;;;6.50;;
7013;SDS011;3547;50.774;12.918;2022-12-05T01:36:01;9.17;;;6.60;;
7013;SDS011;3547;50.774;12.918;2022-12-05T01:41:50;8.70;;;5.67;;
7013;SDS011;3547;50.774;12.918;2022-12-05T01:46:50;9.00;;;5.97;;
7013;SDS011;3547;50.774;12.918;2022-12-05T01:49:30;8.83;;;5.83;;
7013;SDS011;3547;50.774;12.918;2022-12-05T01:55:22;11.00;;;6.00;;
7013;SDS011;3547;50.774;12.918;2022-12-05T01:57:49;9.40;;;6.07;;
7013;SDS011;3547;50.774;12.918;2022-12-05T02:00:16;8.17;;;5.43;;
7013;SDS011;3547;50.774;12.918;2022-12-05T02:02:45;7.67;;;5.37;;
7013;SDS011;3547;50.774;12.918;2022-12-05T02:05:31;7.97;;;5.70;;
7013;SDS011;3547;50.774;12.918;2022-12-05T02:08:00;7.80;;;5.10;;
7013;SDS011;3547;50.774;12.918;2022-12-05T02:10:29;8.80;;;5.90;;
7013;SDS011;3547;50.774;12.918;2022-12-05T02:13:02;9.33;;;6.23;;
7013;SDS011;3547;50.774;12.918;2022-12-05T02:15:51;10.17;;;4.97;;
7013;SDS011;3547;50.774;12.918;2022-12-05T02:18:27;9.47;;;5.80;;
7013;SDS011;3547;50.774;12.918;2022-12-05T02:32:54;8.97;;;5.90;;
7013;SDS011;3547;50.774;12.918;2022-12-05T02:46:21;9.30;;;6.37;;
7013;SDS011;3547;50.774;12.918;2022-12-05T02:48:50;7.97;;;5.77;;
7013;SDS011;3547;50.774;12.918;2022-12-05T02:51:21;8.20;;;5.80;;
7013;SDS011;3547;50.774;12.918;2022-12-05T02:53:50;7.13;;;5.40;;
7013;SDS011;3547;50.774;12.918;2022-12-05T02:56:17;8.47;;;6.03;;
7013;SDS011;3547;50.774;12.918;2022-12-05T02:58:47;8.07;;;5.40;;
7013;SDS011;3547;50.774;12.918;2022-12-05T03:01:18;10.13;;;6.33;;
7013;SDS011;3547;50.774;12.918;2022-12-05T03:03:47;9.47;;;5.70;;
7013;SDS011;3547;50.774;12.918;2022-12-05T03:06:15;9.83;;;6.00;;
7013;SDS011;3547;50.774;12.918;2022-12-05T03:08:49;8.27;;;5.77;;
7013;SDS011;3547;50.774;12.918;2022-12-05T03:11:22;9.30;;;5.87;;
7013;SDS011;3547;50.774;12.918;2022-12-05T03:13:51;8.53;;;5.80;;
7013;SDS011;3547;50.774;12.918;2022-12-05T03:16:42;10.40;;;6.80;;
7013;SDS011;3547;50.774;12.918;2022-12-05T03:22:09;7.57;;;5.90;;
7013;SDS011;3547;50.774;12.918;2022-12-05T03:25:02;7.70;;;5.37;;
7013;SDS011;3547;50.774;12.918;2022-12-05T03:27:36;8.73;;;6.30;;
7013;SDS011;3547;50.774;12.918;2022-12-05T03:30:27;7.23;;;5.83;;
7013;SDS011;3547;50.774;12.918;2022-12-05T03:33:02;8.37;;;5.67;;
7013;SDS011;3547;50.774;12.918;2022-12-05T03:35:43;10.10;;;6.77;;
7013;SDS011;3547;50.774;12.918;2022-12-05T03:38:26;10.80;;;6.87;;
7013;SDS011;3547;50.774;12.918;2022-12-05T03:41:11;8.77;;;6.30;;
7013;SDS011;3547;50.774;12.918;2022-12-05T03:47:16;8.77;;;6.27;;
7013;SDS011;3547;50.774;12.918;2022-12-05T03:49:54;8.20;;;5.77;;
7013;SDS011;3547;50.774;12.918;2022-12-05T03:52:26;9.53;;;6.13;;
7013;SDS011;3547;50.774;12.918;2022-12-05T03:55:01;9.27;;;6.33;;
7013;SDS011;3547;50.774;12.918;2022-12-05T03:57:32;7.30;;;5.53;;
7013;SDS011;3547;50.774;12.918;2022-12-05T04:00:09;9.50;;;6.53;;
7013;SDS011;3547;50.774;12.918;2022-12-05T04:02:44;9.40;;;5.97;;
7013;SDS011;3547;50.774;12.918;2022-12-05T04:05:23;9.83;;;6.20;;
7013;SDS011;3547;50.774;12.918;2022-12-05T04:07:59;7.77;;;5.53;;
7013;SDS011;3547;50.774;12.918;2022-12-05T04:10:30;8.90;;;5.87;;
7013;SDS011;3547;50.774;12.918;2022-12-05T04:13:17;9.27;;;6.50;;
7013;SDS011;3547;50.774;12.918;2022-12-05T04:16:00;9.43;;;6.13;;
7013;SDS011;3547;50.774;12.918;2022-12-05T04:19:38;7.30;;;5.97;;
7013;SDS011;3547;50.774;12.918;2022-12-05T04:21:50;9.33;;;5.90;;
7013;SDS011;3547;50.774;12.918;2022-12-05T04:24:23;9.27;;;5.97;;
7013;SDS011;3547;50.774;12.918;2022-12-05T04:27:28;10.63;;;6.17;;
7013;SDS011;3547;50.774;12.918;2022-12-05T04:35:13;20.67;;;10.10;;
7013;SDS011;3547;50.774;12.918;2022-12-05T04:41:12;24.97;;;12.67;;
7013;SDS011;3547;50.774;12.918;2022-12-05T04:43:42;21.47;;;11.80;;
7013;SDS011;3547;50.774;12.918;2022-12-05T04:46:11;25.20;;;13.77;;
7013;SDS011;3547;50.774;12.918;2022-12-05T04:48:41;22.70;;;12.10;;
7013;SDS011;3547;50.774;12.918;2022-12-05T04:51:12;22.97;;;12.70;;
7013;SDS011;3547;50.774;12.918;2022-12-05T04:53:43;27.40;;;13.97;;
7013;SDS011;3547;50.774;12.918;2022-12-05T04:56:11;19.13;;;12.37;;
7013;SDS011;3547;50.774;12.918;2022-12-05T04:58:41;19.37;;;12.23;;
7013;SDS011;3547;50.774;12.918;2022-12-05T05:01:16;22.53;;;12.20;;
7013;SDS011;3547;50.774;12.918;2022-12-05T05:06:36;19.30;;;12.20;;
7013;SDS011;3547;50.774;12.918;2022-12-05T05:09:04;22.33;;;12.67;;
7013;SDS011;3547;50.774;12.918;2022-12-05T05:11:31;20.73;;;12.20;;
7013;SDS011;3547;50.774;12.918;2022-12-05T05:13:59;18.90;;;10.17;;
7013;SDS011;3547;50.774;12.918;2022-12-05T05:16:28;21.73;;;12.87;;
7013;SDS011;3547;50.774;12.918;2022-12-05T05:18:58;21.50;;;11.90;;
7013;SDS011;3547;50.774;12.918;2022-12-05T05:21:34;23.73;;;12.30;;
7013;SDS011;3547;50.774;12.918;2022-12-05T05:24:06;22.57;;;12.37;;
7013;SDS011;3547;50.774;12.918;2022-12-05T05:26:35;21.97;;;12.60;;
7013;SDS011;3547;50.774;12.918;2022-12-05T05:29:03;20.83;;;10.63;;
7013;SDS011;3547;50.774;12.918;2022-12-05T05:31:30;20.83;;;10.73;;
7013;SDS011;3547;50.774;12.918;2022-12-05T05:33:57;24.73;;;11.67;;
7013;SDS011;3547;50.774;12.918;2022-12-05T05:36:24;22.70;;;11.87;;
7013;SDS011;3547;50.774;12.918;2022-12-05T05:38:53;20.63;;;11.30;;
7013;SDS011;3547;50.774;12.918;2022-12-05T05:41:22;19.27;;;11.27;;
7013;SDS011;3547;50.774;12.918;2022-12-05T05:43:49;24.80;;;11.67;;
7013;SDS011;3547;50.774;12.918;2022-12-05T05:46:17;18.53;;;10.63;;
7013;SDS011;3547;50.774;12.918;2022-12-05T05:48:45;20.00;;;11.13;;
7013;SDS011;3547;50.774;12.918;2022-12-05T05:51:11;23.10;;;11.40;;
7013;SDS011;3547;50.774;12.918;2022-12-05T05:53:39;20.47;;;11.73;;
7013;SDS011;3547;50.774;12.918;2022-12-05T05:56:08;22.27;;;10.67;;
7013;SDS011;3547;50.774;12.918;2022-12-05T06:08:17;23.07;;;12.07;;
7013;SDS011;3547;50.774;12.918;2022-12-05T06:10:45;24.17;;;12.80;;
7013;SDS011;3547;50.774;12.918;2022-12-05T06:13:15;21.93;;;12.63;;
7013;SDS011;3547;50.774;12.918;2022-12-05T06:15:45;20.10;;;11.97;;
7013;SDS011;3547;50.774;12.918;2022-12-05T06:21:52;19.47;;;10.47;;
7013;SDS011;3547;50.774;12.918;2022-12-05T06:27:45;19.13;;;10.27;;
7013;SDS011;3547;50.774;12.918;2022-12-05T06:30:12;16.70;;;10.43;;
7013;SDS011;3547;50.774;12.918;2022-12-05T06:33:16;19.03;;;9.37;;
7013;SDS011;3547;50.774;12.918;2022-12-05T06:35:42;19.40;;;10.93;;
7013;SDS011;3547;50.774;12.918;2022-12-05T06:38:09;14.57;;;10.23;;
7013;SDS011;3547;50.774;12.918;2022-12-05T06:40:42;19.20;;;11.60;;
7013;SDS011;3547;50.774;12.918;2022-12-05T06:43:10;19.10;;;10.47;;
7013;SDS011;3547;50.774;12.918;2022-12-05T06:45:37;18.17;;;10.90;;
7013;SDS011;3547;50.774;12.918;2022-12-05T06:48:05;20.60;;;11.50;;
7013;SDS011;3547;50.774;12.918;2022-12-05T06:50:32;20.93;;;11.30;;
7013;SDS011;3547;50.774;12.918;2022-12-05T06:52:58;18.90;;;10.90;;
7013;SDS011;3547;50.774;12.918;2022-12-05T06:55:27;18.23;;;9.80;;
7013;SDS011;3547;50.774;12.918;2022-12-05T06:57:53;16.23;;;10.20;;
7013;SDS011;3547;50.774;12.918;2022-12-05T07:00:20;17.83;;;10.97;;
7013;SDS011;3547;50.774;12.918;2022-12-05T07:03:04;23.87;;;10.60;;
7013;SDS011;3547;50.774;12.918;2022-12-05T07:05:31;12.77;;;10.13;;
7013;SDS011;3547;50.774;12.918;2022-12-05T07:07:58;19.03;;;10.53;;
7013;SDS011;3547;50.774;12.918;2022-12-05T07:10:24;15.97;;;11.27;;
7013;SDS011;3547;50.774;12.918;2022-12-05T07:12:51;20.33;;;11.17;;
7013;SDS011;3547;50.774;12.918;2022-12-05T07:15:17;18.87;;;11.03;;
7013;SDS011;3547;50.774;12.918;2022-12-05T07:17:43;14.60;;;9.50;;
7013;SDS011;3547;50.774;12.918;2022-12-05T07:20:10;21.63;;;11.20;;
7013;SDS011;3547;50.774;12.918;2022-12-05T07:22:37;16.03;;;9.20;;
7013;SDS011;3547;50.774;12.918;2022-12-05T07:25:03;17.47;;;10.37;;
7013;SDS011;3547;50.774;12.918;2022-12-05T07:27:30;26.17;;;12.87;;
7013;SDS011;3547;50.774;12.918;2022-12-05T07:29:56;20.07;;;11.83;;
7013;SDS011;3547;50.774;12.918;2022-12-05T07:32:25;20.00;;;10.77;;
7013;SDS011;3547;50.774;12.918;2022-12-05T07:34:51;17.80;;;9.70;;
7013;SDS011;3547;50.774;12.918;2022-12-05T07:37:18;19.67;;;10.30;;
7013;SDS011;3547;50.774;12.918;2022-12-05T07:39:44;18.00;;;10.43;;
7013;SDS011;3547;50.774;12.918;2022-12-05T07:42:10;17.73;;;10.63;;
7013;SDS011;3547;50.774;12.918;2022-12-05T07:44:36;20.13;;;12.13;;
7013;SDS011;3547;50.774;12.918;2022-12-05T07:47:03;17.10;;;10.07;;
7013;SDS011;3547;50.774;12.918;2022-12-05T07:49:29;15.90;;;10.07;;
7013;SDS011;3547;50.774;12.918;2022-12-05T07:51:56;17.37;;;10.20;;
7013;SDS011;3547;50.774;12.918;2022-12-05T07:54:22;17.43;;;10.70;;
7013;SDS011;3547;50.774;12.918;2022-12-05T07:56:49;16.53;;;10.10;;
7013;SDS011;3547;50.774;12.918;2022-12-05T07:59:15;14.83;;;8.87;;
7013;SDS011;3547;50.774;12.918;2022-12-05T08:01:42;17.97;;;10.27;;
7013;SDS011;3547;50.774;12.918;2022-12-05T08:04:08;21.33;;;13.00;;
7013;SDS011;3547;50.774;12.918;2022-12-05T08:06:35;17.57;;;11.60;;
7013;SDS011;3547;50.774;12.918;2022-12-05T08:09:01;17.70;;;10.50;;
7013;SDS011;3547;50.774;12.918;2022-12-05T08:11:29;17.23;;;10.37;;
7013;SDS011;3547;50.774;12.918;2022-12-05T08:13:59;18.83;;;11.07;;
7013;SDS011;3547;50.774;12.918;2022-12-05T08:16:26;18.13;;;11.43;;
7013;SDS011;3547;50.774;12.918;2022-12-05T08:18:54;20.70;;;11.50;;
7013;SDS011;3547;50.774;12.918;2022-12-05T08:21:21;31.87;;;21.77;;
7013;SDS011;3547;50.774;12.918;2022-12-05T08:23:49;21.03;;;12.67;;
7013;SDS011;3547;50.774;12.918;2022-12-05T08:26:17;15.50;;;9.63;;
7013;SDS011;3547;50.774;12.918;2022-12-05T08:28:45;15.53;;;10.23;;
7013;SDS011;3547;50.774;12.918;2022-12-05T08:31:16;16.97;;;10.57;;
7013;SDS011;3547;50.774;12.918;2022-12-05T08:33:43;19.50;;;11.20;;
7013;SDS011;3547;50.774;12.918;2022-12-05T08:36:11;20.00;;;11.80;;
7013;SDS011;3547;50.774;12.918;2022-12-05T08:38:46;18.17;;;12.03;;
7013;SDS011;3547;50.774;12.918;2022-12-05T08:41:16;26.83;;;16.13;;
7013;SDS011;3547;50.774;12.918;2022-12-05T08:43:43;27.70;;;14.23;;
7013;SDS011;3547;50.774;12.918;2022-12-05T08:46:09;23.80;;;13.97;;
7013;SDS011;3547;50.774;12.918;2022-12-05T08:48:36;19.30;;;12.17;;
7013;SDS011;3547;50.774;12.918;2022-12-05T08:51:04;19.63;;;12.40;;
7013;SDS011;3547;50.774;12.918;2022-12-05T08:53:33;21.13;;;13.43;;
7013;SDS011;3547;50.774;12.918;2022-12-05T08:56:00;20.83;;;12.07;;
7013;SDS011;3547;50.774;12.918;2022-12-05T08:58:28;19.90;;;12.30;;
7013;SDS011;3547;50.774;12.918;2022-12-05T09:01:04;17.60;;;11.67;;
7013;SDS011;3547;50.774;12.918;2022-12-05T09:03:36;8.07;;;5.67;;
7013;SDS011;3547;50.774;12.918;2022-12-05T09:06:07;5.90;;;3.93;;
7013;SDS011;3547;50.774;12.918;2022-12-05T09:08:36;5.77;;;3.73;;
7013;SDS011;3547;50.774;12.918;2022-12-05T09:11:04;5.53;;;3.83;;
7013;SDS011;3547;50.774;12.918;2022-12-05T09:13:34;6.13;;;3.93;;
7013;SDS011;3547;50.774;12.918;2022-12-05T09:16:05;5.00;;;4.13;;
7013;SDS011;3547;50.774;12.918;2022-12-05T09:18:34;5.93;;;3.47;;
7013;SDS011;3547;50.774;12.918;2022-12-05T09:21:04;3.90;;;2.77;;
7013;SDS011;3547;50.774;12.918;2022-12-05T09:23:35;3.90;;;2.80;;
7013;SDS011;3547;50.774;12.918;2022-12-05T09:26:03;3.30;;;3.00;;
7013;SDS011;3547;50.774;12.918;2022-12-05T09:31:53;4.83;;;3.17;;
7013;SDS011;3547;50.774;12.918;2022-12-05T09:34:20;4.23;;;3.60;;
7013;SDS011;3547;50.774;12.918;2022-12-05T09:36:46;3.90;;;3.20;;
7013;SDS011;3547;50.774;12.918;2022-12-05T09:39:16;6.47;;;4.37;;
7013;SDS011;3547;50.774;12.918;2022-12-05T09:41:46;4.67;;;2.47;;
7013;SDS011;3547;50.774;12.918;2022-12-05T09:53:45;7.90;;;2.97;;
7013;SDS011;3547;50.774;12.918;2022-12-05T09:56:11;2.70;;;2.20;;
7013;SDS011;3547;50.774;12.918;2022-12-05T09:58:42;4.47;;;2.70;;
7013;SDS011;3547;50.774;12.918;2022-12-05T10:01:11;4.43;;;2.97;;
7013;SDS011;3547;50.774;12.918;2022-12-05T10:07:02;3.37;;;2.67;;
7013;SDS011;3547;50.774;12.918;2022-12-05T10:18:15;4.13;;;2.93;;
7013;SDS011;3547;50.774;12.918;2022-12-05T10:21:20;2.93;;;2.43;;
7013;SDS011;3547;50.774;12.918;2022-12-05T10:23:59;3.70;;;2.33;;
7013;SDS011;3547;50.774;12.918;2022-12-05T10:26:54;3.80;;;2.57;;
7013;SDS011;3547;50.774;12.918;2022-12-05T10:29:32;4.03;;;2.40;;
7013;SDS011;3547;50.774;12.918;2022-12-05T10:32:04;3.33;;;2.60;;
7013;SDS011;3547;50.774;12.918;2022-12-05T10:34:44;3.23;;;2.40;;
7013;SDS011;3547;50.774;12.918;2022-12-05T10:37:17;2.97;;;2.13;;
7013;SDS011;3547;50.774;12.918;2022-12-05T10:39:45;2.73;;;2.43;;
7013;SDS011;3547;50.774;12.918;2022-12-05T10:42:15;2.87;;;2.37;;
7013;SDS011;3547;50.774;12.918;2022-12-05T10:44:54;3.13;;;2.80;;
7013;SDS011;3547;50.774;12.918;2022-12-05T10:47:22;2.93;;;2.37;;
7013;SDS011;3547;50.774;12.918;2022-12-05T10:49:49;4.37;;;2.57;;
7013;SDS011;3547;50.774;12.918;2022-12-05T10:52:16;2.83;;;2.50;;
7013;SDS011;3547;50.774;12.918;2022-12-05T10:54:44;3.33;;;2.60;;
7013;SDS011;3547;50.774;12.918;2022-12-05T10:57:29;2.33;;;2.13;;
7013;SDS011;3547;50.774;12.918;2022-12-05T11:03:22;3.07;;;2.10;;
7013;SDS011;3547;50.774;12.918;2022-12-05T11:05:55;2.97;;;2.57;;
7013;SDS011;3547;50.774;12.918;2022-12-05T11:08:25;3.83;;;2.97;;
7013;SDS011;3547;50.774;12.918;2022-12-05T11:10:59;3.03;;;2.47;;
7013;SDS011;3547;50.774;12.918;2022-12-05T11:13:32;2.60;;;2.40;;
7013;SDS011;3547;50.774;12.918;2022-12-05T11:15:59;2.00;;;1.80;;
7013;SDS011;3547;50.774;12.918;2022-12-05T11:22:30;3.50;;;2.27;;
7013;SDS011;3547;50.774;12.918;2022-12-05T11:25:00;2.63;;;2.43;;
7013;SDS011;3547;50.774;12.918;2022-12-05T11:27:46;3.37;;;2.27;;
7013;SDS011;3547;50.774;12.918;2022-12-05T11:32:46;2.97;;;2.50;;
7013;SDS011;3547;50.774;12.918;2022-12-05T11:57:01;3.40;;;2.97;;
7013;SDS011;3547;50.774;12.918;2022-12-05T12:05:17;3.20;;;2.90;;
7013;SDS011;3547;50.774;12.918;2022-12-05T12:22:33;11.00;;;3.33;;
7013;SDS011;3547;50.774;12.918;2022-12-05T12:30:19;7.10;;;4.53;;
7013;SDS011;3547;50.774;12.918;2022-12-05T12:35:45;6.13;;;4.23;;
7013;SDS011;3547;50.774;12.918;2022-12-05T12:41:07;4.50;;;3.40;;
7013;SDS011;3547;50.774;12.918;2022-12-05T12:46:20;4.53;;;3.07;;
7013;SDS011;3547;50.774;12.918;2022-12-05T12:51:33;3.70;;;3.20;;
7013;SDS011;3547;50.774;12.918;2022-12-05T13:01:46;3.87;;;3.13;;
7013;SDS011;3547;50.774;12.918;2022-12-05T13:04:48;3.93;;;3.27;;
7013;SDS011;3547;50.774;12.918;2022-12-05T13:07:25;4.70;;;3.60;;
7013;SDS011;3547;50.774;12.918;2022-12-05T13:12:37;5.07;;;4.00;;
7013;SDS011;3547;50.774;12.918;2022-12-05T13:15:09;5.43;;;4.00;;
7013;SDS011;3547;50.774;12.918;2022-12-05T13:17:39;5.90;;;3.67;;
7013;SDS011;3547;50.774;12.918;2022-12-05T13:20:15;6.10;;;3.57;;
7013;SDS011;3547;50.774;12.918;2022-12-05T13:22:43;4.20;;;3.77;;
7013;SDS011;3547;50.774;12.918;2022-12-05T13:25:17;6.00;;;3.50;;
7013;SDS011;3547;50.774;12.918;2022-12-05T13:27:56;5.70;;;4.00;;
7013;SDS011;3547;50.774;12.918;2022-12-05T13:30:25;5.20;;;3.77;;
7013;SDS011;3547;50.774;12.918;2022-12-05T13:32:56;6.00;;;4.53;;
7013;SDS011;3547;50.774;12.918;2022-12-05T13:35:32;5.57;;;4.70;;
7013;SDS011;3547;50.774;12.918;2022-12-05T13:38:26;6.87;;;3.83;;
7013;SDS011;3547;50.774;12.918;2022-12-05T13:41:13;5.93;;;4.20;;
7013;SDS011;3547;50.774;12.918;2022-12-05T13:43:59;6.27;;;4.63;;
7013;SDS011;3547;50.774;12.918;2022-12-05T13:46:33;6.27;;;4.30;;
7013;SDS011;3547;50.774;12.918;2022-12-05T13:49:05;6.53;;;4.57;;
7013;SDS011;3547;50.774;12.918;2022-12-05T13:51:39;6.97;;;5.20;;
7013;SDS011;3547;50.774;12.918;2022-12-05T13:56:51;5.87;;;4.67;;
7013;SDS011;3547;50.774;12.918;2022-12-05T14:05:53;6.17;;;4.33;;
7013;SDS011;3547;50.774;12.918;2022-12-05T14:15:53;6.73;;;4.63;;
7013;SDS011;3547;50.774;12.918;2022-12-05T14:18:42;6.30;;;4.13;;
7013;SDS011;3547;50.774;12.918;2022-12-05T14:21:38;8.53;;;4.47;;
7013;SDS011;3547;50.774;12.918;2022-12-05T14:32:29;7.23;;;4.40;;
7013;SDS011;3547;50.774;12.918;2022-12-05T14:35:00;6.37;;;4.10;;
7013;SDS011;3547;50.774;12.918;2022-12-05T14:37:56;9.53;;;6.83;;
7013;SDS011;3547;50.774;12.918;2022-12-05T14:43:02;14.30;;;8.07;;
7013;SDS011;3547;50.774;12.918;2022-12-05T14:45:41;9.47;;;6.93;;
7013;SDS011;3547;50.774;12.918;2022-12-05T14:53:13;6.53;;;4.43;;
7013;SDS011;3547;50.774;12.918;2022-12-05T15:00:56;6.60;;;4.43;;
7013;SDS011;3547;50.774;12.918;2022-12-05T15:03:28;8.07;;;5.00;;
7013;SDS011;3547;50.774;12.918;2022-12-05T15:05:58;6.17;;;4.07;;
7013;SDS011;3547;50.774;12.918;2022-12-05T15:08:28;5.90;;;4.83;;
7013;SDS011;3547;50.774;12.918;2022-12-05T15:11:09;5.70;;;3.90;;
7013;SDS011;3547;50.774;12.918;2022-12-05T15:13:57;10.00;;;4.83;;
7013;SDS011;3547;50.774;12.918;2022-12-05T15:16:27;7.07;;;5.37;;
7013;SDS011;3547;50.774;12.918;2022-12-05T15:18:59;7.47;;;4.20;;
7013;SDS011;3547;50.774;12.918;2022-12-05T15:21:35;7.77;;;5.30;;
7013;SDS011;3547;50.774;12.918;2022-12-05T15:24:16;6.93;;;4.77;;
7013;SDS011;3547;50.774;12.918;2022-12-05T15:31:58;6.23;;;4.97;;
7013;SDS011;3547;50.774;12.918;2022-12-05T15:34:27;8.57;;;5.67;;
7013;SDS011;3547;50.774;12.918;2022-12-05T15:37:08;9.00;;;6.17;;
7013;SDS011;3547;50.774;12.918;2022-12-05T15:42:29;8.13;;;6.13;;
7013;SDS011;3547;50.774;12.918;2022-12-05T15:47:46;8.90;;;5.90;;
7013;SDS011;3547;50.774;12.918;2022-12-05T15:53:12;7.70;;;5.30;;
7013;SDS011;3547;50.774;12.918;2022-12-05T15:56:00;9.80;;;4.90;;
7013;SDS011;3547;50.774;12.918;2022-12-05T16:01:57;7.40;;;4.47;;
7013;SDS011;3547;50.774;12.918;2022-12-05T16:04:38;8.37;;;5.63;;
7013;SDS011;3547;50.774;12.918;2022-12-05T16:07:17;8.93;;;5.10;;
7013;SDS011;3547;50.774;12.918;2022-12-05T16:09:45;8.60;;;5.80;;
7013;SDS011;3547;50.774;12.918;2022-12-05T16:12:20;6.57;;;4.37;;
7013;SDS011;3547;50.774;12.918;2022-12-05T16:14:53;9.10;;;5.40;;
7013;SDS011;3547;50.774;12.918;2022-12-05T16:17:22;8.03;;;4.93;;
7013;SDS011;3547;50.774;12.918;2022-12-05T16:19:48;9.70;;;5.77;;
7013;SDS011;3547;50.774;12.918;2022-12-05T16:22:25;6.73;;;4.40;;
7013;SDS011;3547;50.774;12.918;2022-12-05T16:24:54;8.60;;;5.07;;
7013;SDS011;3547;50.774;12.918;2022-12-05T16:27:33;7.67;;;4.87;;
7013;SDS011;3547;50.774;12.918;2022-12-05T16:30:20;7.33;;;5.47;;
7013;SDS011;3547;50.774;12.918;2022-12-05T16:32:48;6.50;;;4.93;;
7013;SDS011;3547;50.774;12.918;2022-12-05T16:40:58;5.23;;;4.53;;
7013;SDS011;3547;50.774;12.918;2022-12-05T16:48:46;13.83;;;8.20;;
7013;SDS011;3547;50.774;12.918;2022-12-05T16:51:39;11.30;;;7.13;;
7013;SDS011;3547;50.774;12.918;2022-12-05T16:54:11;9.10;;;6.50;;
7013;SDS011;3547;50.774;12.918;2022-12-05T16:57:23;9.97;;;7.30;;
7013;SDS011;3547;50.774;12.918;2022-12-05T16:59:51;14.50;;;7.90;;
7013;SDS011;3547;50.774;12.918;2022-12-05T17:21:15;2.27;;;1.70;;
7013;SDS011;3547;50.774;12.918;2022-12-05T17:23:45;2.37;;;2.17;;
7013;SDS011;3547;50.774;12.918;2022-12-05T17:26:12;8.80;;;2.53;;
7013;SDS011;3547;50.774;12.918;2022-12-05T17:28:39;2.17;;;1.57;;
7013;SDS011;3547;50.774;12.918;2022-12-05T17:31:05;2.43;;;2.23;;
7013;SDS011;3547;50.774;12.918;2022-12-05T17:36:14;1.47;;;1.30;;
7013;SDS011;3547;50.774;12.918;2022-12-05T17:38:41;1.30;;;1.20;;
7013;SDS011;3547;50.774;12.918;2022-12-05T17:41:10;2.90;;;1.83;;
7013;SDS011;3547;50.774;12.918;2022-12-05T17:43:44;1.50;;;1.40;;
7013;SDS011;3547;50.774;12.918;2022-12-05T17:46:44;1.87;;;1.70;;
7013;SDS011;3547;50.774;12.918;2022-12-05T17:49:25;2.37;;;1.83;;
7013;SDS011;3547;50.774;12.918;2022-12-05T17:52:02;1.77;;;1.40;;
7013;SDS011;3547;50.774;12.918;2022-12-05T17:57:51;1.07;;;0.93;;
7013;SDS011;3547;50.774;12.918;2022-12-05T18:00:18;1.90;;;1.53;;
7013;SDS011;3547;50.774;12.918;2022-12-05T18:08:03;1.00;;;1.00;;
7013;SDS011;3547;50.774;12.918;2022-12-05T18:10:30;1.73;;;1.50;;
7013;SDS011;3547;50.774;12.918;2022-12-05T18:12:56;2.17;;;1.60;;
7013;SDS011;3547;50.774;12.918;2022-12-05T18:15:22;2.20;;;1.73;;
7013;SDS011;3547;50.774;12.918;2022-12-05T18:17:48;2.20;;;1.57;;
7013;SDS011;3547;50.774;12.918;2022-12-05T18:20:15;3.47;;;1.37;;
7013;SDS011;3547;50.774;12.918;2022-12-05T18:22:44;3.40;;;2.27;;
7013;SDS011;3547;50.774;12.918;2022-12-05T19:07:47;2.50;;;2.00;;
7013;SDS011;3547;50.774;12.918;2022-12-05T19:26:54;1.97;;;1.80;;
7013;SDS011;3547;50.774;12.918;2022-12-05T19:29:23;1.77;;;1.67;;
7013;SDS011;3547;50.774;12.918;2022-12-05T19:32:27;2.53;;;2.00;;
7013;SDS011;3547;50.774;12.918;2022-12-05T19:35:35;2.73;;;1.77;;
7013;SDS011;3547;50.774;12.918;2022-12-05T19:38:37;3.83;;;2.83;;
7013;SDS011;3547;50.774;12.918;2022-12-05T19:45:23;1.90;;;1.80;;
7013;SDS011;3547;50.774;12.918;2022-12-05T19:47:53;2.80;;;2.40;;
7013;SDS011;3547;50.774;12.918;2022-12-05T19:50:29;5.30;;;2.50;;
7013;SDS011;3547;50.774;12.918;2022-12-05T19:53:32;2.90;;;2.30;;
7013;SDS011;3547;50.774;12.918;2022-12-05T19:56:03;2.67;;;1.63;;
7013;SDS011;3547;50.774;12.918;2022-12-05T19:58:46;2.60;;;2.40;;
7013;SDS011;3547;50.774;12.918;2022-12-05T20:01:24;1.97;;;1.53;;
7013;SDS011;3547;50.774;12.918;2022-12-05T20:04:19;3.50;;;1.47;;
7013;SDS011;3547;50.774;12.918;2022-12-05T20:06:55;1.60;;;1.47;;
7013;SDS011;3547;50.774;12.918;2022-12-05T20:09:30;3.20;;;2.30;;
7013;SDS011;3547;50.774;12.918;2022-12-05T20:12:16;2.97;;;1.90;;
7013;SDS011;3547;50.774;12.918;2022-12-05T20:25:47;3.63;;;2.07;;
7013;SDS011;3547;50.774;12.918;2022-12-05T20:28:13;1.83;;;1.73;;
7013;SDS011;3547;50.774;12.918;2022-12-05T20:30:40;2.63;;;1.90;;
7013;SDS011;3547;50.774;12.918;2022-12-05T20:33:06;2.57;;;2.20;;
7013;SDS011;3547;50.774;12.918;2022-12-05T20:35:35;1.77;;;1.67;;
7013;SDS011;3547;50.774;12.918;2022-12-05T20:38:02;2.03;;;1.83;;
7013;SDS011;3547;50.774;12.918;2022-12-05T20:40:29;1.63;;;1.33;;
7013;SDS011;3547;50.774;12.918;2022-12-05T20:42:55;1.93;;;1.70;;
7013;SDS011;3547;50.774;12.918;2022-12-05T20:45:25;1.67;;;1.57;;
7013;SDS011;3547;50.774;12.918;2022-12-05T20:47:51;1.37;;;1.23;;
7013;SDS011;3547;50.774;12.918;2022-12-05T20:50:18;1.73;;;1.47;;
7013;SDS011;3547;50.774;12.918;2022-12-05T20:52:44;2.30;;;1.70;;
7013;SDS011;3547;50.774;12.918;2022-12-05T20:55:11;2.10;;;1.70;;
7013;SDS011;3547;50.774;12.918;2022-12-05T20:57:37;6.63;;;1.60;;
7013;SDS011;3547;50.774;12.918;2022-12-05T21:00:06;4.97;;;1.47;;
7013;SDS011;3547;50.774;12.918;2022-12-05T21:02:34;1.83;;;1.23;;